createdAt,value
2023-05-02T00:01:49.896Z,0.53
2023-05-02T00:03:50.898Z,3.72
2023-05-02T00:05:51.860Z,3.83
2023-05-02T00:07:52.768Z,3.33
2023-05-02T00:09:54.120Z,4.72
2023-05-02T00:11:55.093Z,5.75
2023-05-02T00:13:55.891Z,3.08
2023-05-02T00:15:56.658Z,6.53
2023-05-02T00:17:57.801Z,3.27
2023-05-02T00:19:58.781Z,5.83
2023-05-02T00:21:59.945Z,4.05
2023-05-02T00:24:00.724Z,3.52
2023-05-02T00:26:01.684Z,0.30
2023-05-02T00:28:02.543Z,4.40
2023-05-02T00:30:03.853Z,3.22
2023-05-02T00:32:05.295Z,5.75
2023-05-02T00:34:06.257Z,1.98
2023-05-02T00:36:18.188Z,1.85
2023-05-02T00:38:19.056Z,3.55
2023-05-02T00:40:20.649Z,5.47
2023-05-02T00:42:21.438Z,3.52
2023-05-02T00:44:22.307Z,0.72
2023-05-02T00:46:23.196Z,0.42
2023-05-02T00:48:24.497Z,0.80
2023-05-02T00:50:26.385Z,1.45
2023-05-02T00:52:28.111Z,1.40
2023-05-02T00:54:30.295Z,0.78
2023-05-02T00:56:31.203Z,0.75
2023-05-02T00:58:33.703Z,3.45
2023-05-02T01:00:45.564Z,1.60
2023-05-02T01:02:48.560Z,0.93
2023-05-02T01:04:51.414Z,0.98
2023-05-02T01:06:59.972Z,2.52
2023-05-02T01:09:19.233Z,1.72
2023-05-02T01:11:36.954Z,2.05
2023-05-02T01:13:38.236Z,3.30
2023-05-02T01:15:40.547Z,0.98
2023-05-02T01:17:41.838Z,3.92
2023-05-02T01:19:48.584Z,0.25
2023-05-02T01:21:50.574Z,9.45
2023-05-02T01:24:02.225Z,4.65
2023-05-02T01:26:05.036Z,3.60
2023-05-02T01:28:16.856Z,4.15
2023-05-02T01:30:18.752Z,2.77
2023-05-02T01:32:22.563Z,1.95
2023-05-02T01:34:25.356Z,2.42
2023-05-02T01:36:29.498Z,4.15
2023-05-02T01:38:30.784Z,4.03
2023-05-02T01:40:32.882Z,4.85
2023-05-02T01:42:35.658Z,5.28
2023-05-02T01:44:36.886Z,5.83
2023-05-02T01:46:39.276Z,3.27
2023-05-02T01:48:42.061Z,5.70
2023-05-02T01:50:44.607Z,0.20
2023-05-02T01:52:46.756Z,2.55
2023-05-02T01:54:49.339Z,3.75
2023-05-02T01:56:51.425Z,3.08
2023-05-02T01:58:53.642Z,6.15
2023-05-02T02:00:55.655Z,2.83
2023-05-02T02:02:58.983Z,3.55
2023-05-02T02:05:01.185Z,5.78
2023-05-02T02:07:03.214Z,4.15
2023-05-02T02:09:05.291Z,2.75
2023-05-02T02:11:08.095Z,3.60
2023-05-02T02:13:14.281Z,8.95
2023-05-02T02:15:17.083Z,4.03
2023-05-02T02:17:22.663Z,1.92
2023-05-02T02:19:24.030Z,2.52
2023-05-02T02:21:26.460Z,1.40
2023-05-02T02:23:28.255Z,4.90
2023-05-02T02:25:29.272Z,3.05
2023-05-02T02:27:30.254Z,0.78
2023-05-02T02:29:31.130Z,2.00
2023-05-02T02:31:32.814Z,0.85
2023-05-02T02:33:33.814Z,3.72
2023-05-02T02:35:36.598Z,3.27
2023-05-02T02:37:39.480Z,3.80
2023-05-02T02:39:59.233Z,1.72
2023-05-02T02:42:02.880Z,1.30
2023-05-02T02:44:05.981Z,0.40
2023-05-02T02:46:26.711Z,2.75
2023-05-02T02:48:35.321Z,1.25
2023-05-02T02:50:38.013Z,1.10
2023-05-02T02:52:40.752Z,0.90
2023-05-02T02:54:52.632Z,0.90
2023-05-02T02:57:07.958Z,1.27
2023-05-02T02:59:14.118Z,1.32
2023-05-02T03:01:17.239Z,1.20
2023-05-02T03:03:19.566Z,1.57
2023-05-02T03:05:20.875Z,1.50
2023-05-02T03:07:21.848Z,2.60
2023-05-02T03:09:23.298Z,1.50
2023-05-02T03:11:24.664Z,1.25
2023-05-02T03:13:27.836Z,1.80
2023-05-02T03:15:36.776Z,1.32
2023-05-02T03:17:37.694Z,1.82
2023-05-02T03:19:38.636Z,1.50
2023-05-02T03:21:40.973Z,1.20
2023-05-02T03:23:43.652Z,0.88
2023-05-02T03:25:44.626Z,1.80
2023-05-02T03:27:46.037Z,2.17
2023-05-02T03:29:48.214Z,1.75
2023-05-02T03:31:49.834Z,1.07
2023-05-02T03:33:51.183Z,1.52
2023-05-02T03:35:52.062Z,0.82
2023-05-02T03:37:52.935Z,1.30
2023-05-02T03:39:53.895Z,2.52
2023-05-02T03:41:54.870Z,1.87
2023-05-02T03:43:55.846Z,2.02
2023-05-02T03:45:57.456Z,1.30
2023-05-02T03:47:59.350Z,0.95
2023-05-02T03:50:00.565Z,0.95
2023-05-02T03:52:02.371Z,1.45
2023-05-02T03:54:03.560Z,1.37
2023-05-02T03:56:07.244Z,1.72
2023-05-02T03:58:10.235Z,1.62
2023-05-02T04:00:11.882Z,2.37
2023-05-02T04:02:12.855Z,0.80
2023-05-02T04:04:15.756Z,2.08
2023-05-02T04:06:18.563Z,1.87
2023-05-02T04:08:21.385Z,2.67
2023-05-02T04:10:22.627Z,1.98
2023-05-02T04:12:25.418Z,0.65
2023-05-02T04:14:27.101Z,2.92
2023-05-02T04:16:29.108Z,2.42
2023-05-02T04:18:30.447Z,1.30
2023-05-02T04:20:32.435Z,2.37
2023-05-02T04:22:33.517Z,0.93
2023-05-02T04:24:36.184Z,2.83
2023-05-02T04:26:37.087Z,1.15
2023-05-02T04:28:39.929Z,2.08
2023-05-02T04:30:41.531Z,2.27
2023-05-02T04:32:44.358Z,2.55
2023-05-02T04:34:45.973Z,1.82
2023-05-02T04:36:47.567Z,2.87
2023-05-02T04:38:50.329Z,1.40
2023-05-02T04:40:51.854Z,1.20
2023-05-02T04:42:54.853Z,1.07
2023-05-02T04:44:57.634Z,2.27
2023-05-02T04:46:58.600Z,1.17
2023-05-02T04:48:59.487Z,2.37
2023-05-02T04:51:00.449Z,0.90
2023-05-02T04:53:02.721Z,1.35
2023-05-02T04:55:03.920Z,1.12
2023-05-02T04:57:06.681Z,1.35
2023-05-02T04:59:08.852Z,2.02
2023-05-02T05:01:09.892Z,1.12
2023-05-02T05:03:11.390Z,1.47
2023-05-02T05:05:12.325Z,0.37
2023-05-02T05:07:13.298Z,1.30
2023-05-02T05:09:14.391Z,1.40
2023-05-02T05:11:15.431Z,3.02
2023-05-02T05:13:16.421Z,0.98
2023-05-02T05:15:20.536Z,1.30
2023-05-02T05:17:23.320Z,1.00
2023-05-02T05:19:24.317Z,0.85
2023-05-02T05:21:26.495Z,1.30
2023-05-02T05:23:27.926Z,1.92
2023-05-02T05:25:28.852Z,0.53
2023-05-02T05:27:30.532Z,1.10
2023-05-02T05:29:32.310Z,1.65
2023-05-02T05:31:33.575Z,1.98
2023-05-02T05:33:35.229Z,0.60
2023-05-02T05:35:36.885Z,1.67
2023-05-02T05:37:38.769Z,1.20
2023-05-02T05:39:41.471Z,0.47
2023-05-02T05:41:43.200Z,0.42
2023-05-02T05:43:45.571Z,0.75
2023-05-02T05:45:46.758Z,0.90
2023-05-02T05:47:49.290Z,1.10
2023-05-02T05:49:53.294Z,1.15
2023-05-02T05:51:54.790Z,0.60
2023-05-02T05:53:55.762Z,0.10
2023-05-02T05:55:57.230Z,0.55
2023-05-02T05:57:58.334Z,1.30
2023-05-02T05:59:59.415Z,1.55
2023-05-02T06:02:00.562Z,4.58
2023-05-02T06:04:02.491Z,0.42
2023-05-02T06:06:03.845Z,0.33
2023-05-02T06:08:06.704Z,0.57
2023-05-02T06:10:09.194Z,0.20
2023-05-02T06:12:11.146Z,1.07
2023-05-02T06:14:12.136Z,1.42
2023-05-02T06:16:13.762Z,0.85
2023-05-02T06:18:14.779Z,0.80
2023-05-02T06:20:18.706Z,1.35
2023-05-02T06:22:19.839Z,1.77
2023-05-02T06:24:20.823Z,1.40
2023-05-02T06:26:21.730Z,0.65
2023-05-02T06:28:22.511Z,0.65
2023-05-02T06:30:23.293Z,1.55
2023-05-02T06:32:24.177Z,0.90
2023-05-02T06:34:24.946Z,0.78
2023-05-02T06:36:26.961Z,1.67
2023-05-02T06:38:29.210Z,1.17
2023-05-02T06:40:30.306Z,0.15
2023-05-02T06:42:31.178Z,1.55
2023-05-02T06:44:32.036Z,1.52
2023-05-02T06:46:32.855Z,1.12
2023-05-02T06:48:36.470Z,1.32
2023-05-02T06:50:37.352Z,0.95
2023-05-02T06:52:38.224Z,0.42
2023-05-02T06:54:39.220Z,1.22
2023-05-02T06:56:40.102Z,1.75
2023-05-02T06:58:40.970Z,1.27
2023-05-02T07:00:41.944Z,0.85
2023-05-02T07:02:43.791Z,0.98
2023-05-02T07:04:44.834Z,0.78
2023-05-02T07:06:46.018Z,0.95
2023-05-02T07:08:46.880Z,0.90
2023-05-02T07:10:47.668Z,1.70
2023-05-02T07:12:48.651Z,2.12
2023-05-02T07:14:49.497Z,0.90
2023-05-02T07:16:50.505Z,0.90
2023-05-02T07:18:51.325Z,0.75
2023-05-02T07:20:52.199Z,1.05
2023-05-02T07:22:53.256Z,0.10
2023-05-02T07:25:01.777Z,0.23
2023-05-02T07:27:03.058Z,1.98
2023-05-02T07:29:05.730Z,1.35
2023-05-02T07:31:06.618Z,1.65
2023-05-02T07:33:07.521Z,0.53
2023-05-02T07:35:08.633Z,1.10
2023-05-02T07:37:09.613Z,0.45
2023-05-02T07:39:10.478Z,0.93
2023-05-02T07:41:12.753Z,0.75
2023-05-02T07:43:15.205Z,0.57
2023-05-02T07:45:16.205Z,1.32
2023-05-02T07:47:17.055Z,1.45
2023-05-02T07:49:18.341Z,1.12
2023-05-02T07:51:20.740Z,1.15
2023-05-02T07:53:21.615Z,0.90
2023-05-02T07:55:22.526Z,0.55
2023-05-02T07:57:23.497Z,0.88
2023-05-02T07:59:26.222Z,1.40
2023-05-02T08:01:27.878Z,0.50
2023-05-02T08:03:29.370Z,0.70
2023-05-02T08:05:32.365Z,1.07
2023-05-02T08:07:34.629Z,0.78
2023-05-02T08:09:35.499Z,1.45
2023-05-02T08:11:36.560Z,0.50
2023-05-02T08:13:37.502Z,0.93
2023-05-02T08:15:38.315Z,1.05
2023-05-02T08:17:39.210Z,0.90
2023-05-02T08:19:40.740Z,1.27
2023-05-02T08:21:42.036Z,0.30
2023-05-02T08:23:42.925Z,1.35
2023-05-02T08:25:43.840Z,1.50
2023-05-02T08:27:44.870Z,0.90
2023-05-02T08:29:45.855Z,0.70
2023-05-02T08:31:46.757Z,1.25
2023-05-02T08:33:47.713Z,1.00
2023-05-02T08:35:48.705Z,0.88
2023-05-02T08:37:49.584Z,1.05
2023-05-02T08:39:50.453Z,0.88
2023-05-02T08:41:51.252Z,1.20
2023-05-02T08:43:52.646Z,0.47
2023-05-02T08:45:53.720Z,0.93
2023-05-02T08:47:55.764Z,0.98
2023-05-02T08:49:58.629Z,1.57
2023-05-02T08:51:59.615Z,0.42
2023-05-02T08:54:01.388Z,0.45
2023-05-02T08:56:02.579Z,1.07
2023-05-02T08:58:03.861Z,0.70
2023-05-02T09:00:05.973Z,1.20
2023-05-02T09:02:08.652Z,0.20
2023-05-02T09:04:10.166Z,1.62
2023-05-02T09:06:12.280Z,0.78
2023-05-02T09:08:15.721Z,1.35
2023-05-02T09:10:16.919Z,0.53
2023-05-02T09:12:20.301Z,0.40
2023-05-02T09:14:21.332Z,0.72
2023-05-02T09:16:23.527Z,0.95
2023-05-02T09:18:26.421Z,0.95
2023-05-02T09:20:27.183Z,1.92
2023-05-02T09:22:28.061Z,1.98
2023-05-02T09:24:29.175Z,0.40
2023-05-02T09:26:33.272Z,0.30
2023-05-02T09:28:36.014Z,1.12
2023-05-02T09:30:36.888Z,0.93
2023-05-02T09:32:43.919Z,0.90
2023-05-02T09:35:03.418Z,0.90
2023-05-02T09:37:04.904Z,0.57
2023-05-02T09:39:10.781Z,0.82
2023-05-02T09:41:12.019Z,0.70
2023-05-02T09:43:16.341Z,0.68
2023-05-02T09:45:21.157Z,0.85
2023-05-02T09:47:26.483Z,0.75
2023-05-02T09:49:29.265Z,0.30
2023-05-02T09:51:30.555Z,0.95
2023-05-02T09:53:31.471Z,0.65
2023-05-02T09:55:32.384Z,0.47
2023-05-02T09:57:41.255Z,0.50
2023-05-02T09:59:44.042Z,0.72
2023-05-02T10:01:45.033Z,1.25
2023-05-02T10:03:46.891Z,0.45
2023-05-02T10:05:47.960Z,0.47
2023-05-02T10:07:48.872Z,0.40
2023-05-02T10:09:50.550Z,0.85
2023-05-02T10:11:52.851Z,0.72
2023-05-02T10:13:53.743Z,1.07
2023-05-02T10:15:56.558Z,0.50
2023-05-02T10:18:00.619Z,1.50
2023-05-02T10:20:05.772Z,0.78
2023-05-02T10:22:07.330Z,0.55
2023-05-02T10:24:08.359Z,0.70
2023-05-02T10:26:11.447Z,0.65
2023-05-02T10:28:12.886Z,1.15
2023-05-02T10:30:14.181Z,0.37
2023-05-02T10:32:19.474Z,1.02
2023-05-02T10:34:21.205Z,0.30
2023-05-02T10:36:22.378Z,0.80
2023-05-02T10:38:24.758Z,0.30
2023-05-02T10:40:26.394Z,0.47
2023-05-02T10:42:28.084Z,1.00
2023-05-02T10:44:34.082Z,0.93
2023-05-02T10:46:36.300Z,1.20
2023-05-02T10:48:37.944Z,0.55
2023-05-02T10:50:48.581Z,0.30
2023-05-02T10:52:49.558Z,1.22
2023-05-02T10:54:50.459Z,1.00
2023-05-02T10:57:05.483Z,0.40
2023-05-02T10:59:26.281Z,1.17
2023-05-02T11:01:29.170Z,0.50
2023-05-02T11:03:41.019Z,0.50
2023-05-02T11:06:00.515Z,0.95
2023-05-02T11:08:20.459Z,0.90
2023-05-02T11:10:22.927Z,0.50
2023-05-02T11:12:43.675Z,0.55
2023-05-02T11:14:46.549Z,0.50
2023-05-02T11:17:04.574Z,0.85
2023-05-02T11:19:05.549Z,0.85
2023-05-02T11:21:27.135Z,0.65
2023-05-02T11:23:27.925Z,0.55
2023-05-02T11:25:33.463Z,0.90
2023-05-02T11:27:39.083Z,0.90
2023-05-02T11:29:44.936Z,0.60
2023-05-02T11:31:54.975Z,0.70
2023-05-02T11:34:00.060Z,0.33
2023-05-02T11:36:01.162Z,1.15
2023-05-02T11:38:04.018Z,0.93
2023-05-02T11:40:11.235Z,1.75
2023-05-02T11:42:28.519Z,0.80
2023-05-02T11:44:29.371Z,0.62
2023-05-02T11:46:30.294Z,0.98
2023-05-02T11:48:33.924Z,1.45
2023-05-02T11:50:44.085Z,0.50
2023-05-02T11:52:44.413Z,0.90
2023-05-02T11:54:45.265Z,0.68
2023-05-02T11:56:46.493Z,1.15
2023-05-02T11:58:49.267Z,0.78
2023-05-02T12:00:50.657Z,0.82
2023-05-02T12:02:51.599Z,0.40
2023-05-02T12:04:52.460Z,1.07
2023-05-02T12:06:56.546Z,0.45
2023-05-02T12:09:07.416Z,0.60
2023-05-02T12:11:08.460Z,0.57
2023-05-02T12:13:10.163Z,0.40
2023-05-02T12:15:12.677Z,0.65
2023-05-02T12:17:13.706Z,0.93
2023-05-02T12:19:15.757Z,1.02
2023-05-02T12:21:17.127Z,0.70
2023-05-02T12:23:20.106Z,0.60
2023-05-02T12:25:21.220Z,1.15
2023-05-02T12:27:22.097Z,0.72
2023-05-02T12:29:25.269Z,1.15
2023-05-02T12:31:30.525Z,0.93
2023-05-02T12:33:33.505Z,0.90
2023-05-02T12:35:34.884Z,0.50
2023-05-02T12:37:35.969Z,0.72
2023-05-02T12:39:40.220Z,1.02
2023-05-02T12:41:42.973Z,0.40
2023-05-02T12:43:48.078Z,1.15
2023-05-02T12:45:49.409Z,0.90
2023-05-02T12:47:50.396Z,0.40
2023-05-02T12:49:53.250Z,0.60
2023-05-02T12:51:57.058Z,1.17
2023-05-02T12:53:57.885Z,0.98
2023-05-02T12:56:02.455Z,0.90
2023-05-02T12:58:04.242Z,0.82
2023-05-02T13:00:05.840Z,1.00
2023-05-02T13:02:06.840Z,0.65
2023-05-02T13:04:07.743Z,0.40
2023-05-02T13:06:08.733Z,1.22
2023-05-02T13:08:09.563Z,0.90
2023-05-02T13:10:13.086Z,0.70
2023-05-02T13:12:13.964Z,0.98
2023-05-02T13:14:14.824Z,0.53
2023-05-02T13:16:15.878Z,0.25
2023-05-02T13:18:16.924Z,0.57
2023-05-02T13:20:18.220Z,0.65
2023-05-02T13:22:19.088Z,1.00
2023-05-02T13:24:19.958Z,1.12
2023-05-02T13:26:20.740Z,0.60
2023-05-02T13:28:21.605Z,0.78
2023-05-02T13:30:22.519Z,0.42
2023-05-02T13:32:23.433Z,0.95
2023-05-02T13:34:25.088Z,0.40
2023-05-02T13:36:26.350Z,0.75
2023-05-02T13:38:27.224Z,0.40
2023-05-02T13:40:27.988Z,1.27
2023-05-02T13:42:28.784Z,0.40
2023-05-02T13:44:30.161Z,1.05
2023-05-02T13:46:33.010Z,1.32
2023-05-02T13:48:34.038Z,0.50
2023-05-02T13:50:36.860Z,0.33
2023-05-02T13:52:37.896Z,0.57
2023-05-02T13:54:38.831Z,0.90
2023-05-02T13:56:39.914Z,1.12
2023-05-02T13:58:41.345Z,0.57
2023-05-02T14:00:42.203Z,0.70
2023-05-02T14:02:43.387Z,0.60
2023-05-02T14:04:44.300Z,0.85
2023-05-02T14:06:45.200Z,0.90
2023-05-02T14:08:46.042Z,0.50
2023-05-02T14:10:46.952Z,0.63
2023-05-02T14:12:48.173Z,0.82
2023-05-02T14:14:49.335Z,1.35
2023-05-02T14:16:50.733Z,0.65
2023-05-02T14:18:51.619Z,0.30
2023-05-02T14:20:52.654Z,0.60
2023-05-02T14:22:53.645Z,0.50
2023-05-02T14:24:54.535Z,1.22
2023-05-02T14:26:55.510Z,0.62
2023-05-02T14:28:56.502Z,0.75
2023-05-02T14:30:57.307Z,0.20
2023-05-02T14:32:58.414Z,1.52
2023-05-02T14:34:59.311Z,0.20
2023-05-02T14:37:00.192Z,1.25
2023-05-02T14:39:01.071Z,0.78
2023-05-02T14:41:05.045Z,1.05
2023-05-02T14:43:06.633Z,0.35
2023-05-02T14:45:08.260Z,0.70
2023-05-02T14:47:10.077Z,0.95
2023-05-02T14:49:10.904Z,0.93
2023-05-02T14:51:11.781Z,1.32
2023-05-02T14:53:12.754Z,0.70
2023-05-02T14:55:16.799Z,0.80
2023-05-02T14:57:17.747Z,1.02
2023-05-02T14:59:18.714Z,0.62
2023-05-02T15:01:21.563Z,0.65
2023-05-02T15:03:22.610Z,1.60
2023-05-02T15:05:23.475Z,1.32
2023-05-02T15:07:24.452Z,1.20
2023-05-02T15:09:25.868Z,0.50
2023-05-02T15:11:26.746Z,0.68
2023-05-02T15:13:27.635Z,0.65
2023-05-02T15:15:29.132Z,0.30
2023-05-02T15:17:29.918Z,0.33
2023-05-02T15:19:30.907Z,0.90
2023-05-02T15:21:32.132Z,0.90
2023-05-02T15:23:32.905Z,0.90
2023-05-02T15:25:33.860Z,0.68
2023-05-02T15:27:34.768Z,1.02
2023-05-02T15:29:35.626Z,0.70
2023-05-02T15:31:36.590Z,1.32
2023-05-02T15:33:37.635Z,1.20
2023-05-02T15:35:38.607Z,0.75
2023-05-02T15:37:39.547Z,1.12
2023-05-02T15:39:40.406Z,0.33
2023-05-02T15:41:41.418Z,0.85
2023-05-02T15:43:42.374Z,0.55
2023-05-02T15:45:44.068Z,0.50
2023-05-02T15:47:44.993Z,1.12
2023-05-02T15:49:46.344Z,0.95
2023-05-02T15:51:47.374Z,1.05
2023-05-02T15:53:50.167Z,0.85
2023-05-02T15:55:51.268Z,2.15
2023-05-02T15:57:52.639Z,0.35
2023-05-02T15:59:53.441Z,0.55
2023-05-02T16:01:54.344Z,1.25
2023-05-02T16:03:55.484Z,1.40
2023-05-02T16:05:58.505Z,0.50
2023-05-02T16:07:59.369Z,0.90
2023-05-02T16:10:00.711Z,0.47
2023-05-02T16:12:03.134Z,0.72
2023-05-02T16:14:04.057Z,0.78
2023-05-02T16:16:06.913Z,0.75
2023-05-02T16:18:07.818Z,0.85
2023-05-02T16:20:10.047Z,0.75
2023-05-02T16:22:11.761Z,0.72
2023-05-02T16:24:12.656Z,0.82
2023-05-02T16:26:13.492Z,1.10
2023-05-02T16:28:14.412Z,0.90
2023-05-02T16:30:15.515Z,0.40
2023-05-02T16:32:16.372Z,0.85
2023-05-02T16:34:17.229Z,0.50
2023-05-02T16:36:18.097Z,0.20
2023-05-02T16:38:18.873Z,0.62
2023-05-02T16:40:19.801Z,0.40
2023-05-02T16:42:20.868Z,0.57
2023-05-02T16:44:21.759Z,0.35
2023-05-02T16:46:22.714Z,1.00
2023-05-02T16:48:23.680Z,0.75
2023-05-02T16:50:24.461Z,0.72
2023-05-02T16:52:25.808Z,0.55
2023-05-02T16:54:26.689Z,0.30
2023-05-02T16:56:27.886Z,0.70
2023-05-02T16:58:28.842Z,1.67
2023-05-02T17:00:29.759Z,1.15
2023-05-02T17:02:30.687Z,1.62
2023-05-02T17:04:31.602Z,0.40
2023-05-02T17:06:32.615Z,0.85
2023-05-02T17:08:33.564Z,0.37
2023-05-02T17:10:34.437Z,0.50
2023-05-02T17:12:35.237Z,0.37
2023-05-02T17:14:37.236Z,0.68
2023-05-02T17:16:39.072Z,0.90
2023-05-02T17:18:40.000Z,1.02
2023-05-02T17:20:40.880Z,1.05
2023-05-02T17:22:41.998Z,1.35
2023-05-02T17:24:44.701Z,0.93
2023-05-02T17:26:45.676Z,0.70
2023-05-02T17:28:46.454Z,1.07
2023-05-02T17:30:47.772Z,0.40
2023-05-02T17:32:48.704Z,0.53
2023-05-02T17:34:49.742Z,0.45
2023-05-02T17:36:50.716Z,0.30
2023-05-02T17:38:51.699Z,0.40
2023-05-02T17:40:52.896Z,0.70
2023-05-02T17:42:54.704Z,0.33
2023-05-02T17:44:55.696Z,1.15
2023-05-02T17:46:57.087Z,0.40
2023-05-02T17:48:57.985Z,0.40
2023-05-02T17:51:00.553Z,0.65
2023-05-02T17:53:01.420Z,0.35
2023-05-02T17:55:02.315Z,0.20
2023-05-02T17:57:03.945Z,0.70
2023-05-02T17:59:04.821Z,0.70
2023-05-02T18:01:06.330Z,0.72
2023-05-02T18:03:07.712Z,0.57
2023-05-02T18:05:08.881Z,0.42
2023-05-02T18:07:10.000Z,0.65
2023-05-02T18:09:11.584Z,0.20
2023-05-02T18:11:13.668Z,0.33
2023-05-02T18:13:30.058Z,0.90
2023-05-02T18:15:31.066Z,0.62
2023-05-02T18:17:31.911Z,0.68
2023-05-02T18:19:32.997Z,0.30
2023-05-02T18:21:35.800Z,0.95
2023-05-02T18:23:36.849Z,0.20
2023-05-02T18:25:37.758Z,0.30
2023-05-02T18:27:38.668Z,0.10
2023-05-02T18:29:39.629Z,0.30
2023-05-02T18:31:41.158Z,0.65
2023-05-02T18:33:44.145Z,0.30
2023-05-02T18:35:48.750Z,0.30
2023-05-02T18:37:49.565Z,0.37
2023-05-02T18:39:50.545Z,0.20
2023-05-02T18:41:51.404Z,0.30
2023-05-02T18:43:52.494Z,0.57
2023-05-02T18:45:53.351Z,0.20
2023-05-02T18:47:54.271Z,0.28
2023-05-02T18:49:58.965Z,0.30
2023-05-02T18:51:59.944Z,0.20
2023-05-02T18:54:01.138Z,0.10
2023-05-02T18:56:02.174Z,0.30
2023-05-02T18:58:03.272Z,0.60
2023-05-02T19:00:05.583Z,0.20
2023-05-02T19:02:06.478Z,0.30
2023-05-02T19:04:07.611Z,0.20
2023-05-02T19:06:08.850Z,0.35
2023-05-02T19:08:09.929Z,0.55
2023-05-02T19:10:10.812Z,0.20
2023-05-02T19:12:11.580Z,0.10
2023-05-02T19:14:12.586Z,0.42
2023-05-02T19:16:13.681Z,0.60
2023-05-02T19:18:16.440Z,0.10
2023-05-02T19:20:17.581Z,0.33
2023-05-02T19:22:20.512Z,0.20
2023-05-02T19:24:21.449Z,0.42
2023-05-02T19:26:22.661Z,0.20
2023-05-02T19:28:23.524Z,0.10
2023-05-02T19:30:24.301Z,0.62
2023-05-02T19:32:25.546Z,0.50
2023-05-02T19:34:27.493Z,0.15
2023-05-02T19:36:28.495Z,1.05
2023-05-02T19:38:29.452Z,0.72
2023-05-02T19:40:30.475Z,0.40
2023-05-02T19:42:31.352Z,0.33
2023-05-02T19:44:32.129Z,0.20
2023-05-02T19:46:33.601Z,0.10
2023-05-02T19:48:34.501Z,0.85
2023-05-02T19:50:35.474Z,0.33
2023-05-02T19:52:38.415Z,0.45
2023-05-02T19:54:39.538Z,0.82
2023-05-02T19:56:42.342Z,0.33
2023-05-02T19:58:43.574Z,0.30
2023-05-02T20:00:45.727Z,0.20
2023-05-02T20:02:48.237Z,0.15
2023-05-02T20:04:50.045Z,0.50
2023-05-02T20:06:51.188Z,0.30
2023-05-02T20:08:52.176Z,0.40
2023-05-02T20:10:53.458Z,0.17
2023-05-02T20:12:54.361Z,0.90
2023-05-02T20:14:55.134Z,0.20
2023-05-02T20:18:59.679Z,0.10
2023-05-02T20:21:00.626Z,0.40
2023-05-02T20:23:01.531Z,0.10
2023-05-02T20:25:02.889Z,0.40
2023-05-02T20:27:03.860Z,0.20
2023-05-02T20:29:06.783Z,1.00
2023-05-02T20:31:07.825Z,0.10
2023-05-02T20:33:15.932Z,0.10
2023-05-02T20:35:13.644Z,0.10
2023-05-02T20:37:15.115Z,0.37
2023-05-02T20:39:17.906Z,0.10
2023-05-02T20:41:19.510Z,0.47
2023-05-02T20:43:22.235Z,0.10
2023-05-02T20:45:24.224Z,0.17
2023-05-02T20:47:25.852Z,0.37
2023-05-02T20:49:28.587Z,0.25
2023-05-02T20:51:29.626Z,0.10
2023-05-02T20:53:30.458Z,0.10
2023-05-02T20:55:31.298Z,0.30
2023-05-02T20:57:32.207Z,0.30
2023-05-02T20:59:33.085Z,0.10
2023-05-02T21:01:34.121Z,0.10
2023-05-02T21:03:36.923Z,0.30
2023-05-02T21:05:37.772Z,0.20
2023-05-02T21:07:39.853Z,1.10
2023-05-02T21:09:40.723Z,0.13
2023-05-02T21:11:41.629Z,0.33
2023-05-02T21:13:42.818Z,0.10
2023-05-02T21:15:43.685Z,0.10
2023-05-02T21:17:44.651Z,0.68
2023-05-02T21:19:45.533Z,1.30
2023-05-02T21:21:46.808Z,0.40
2023-05-02T21:23:47.701Z,0.10
2023-05-02T21:25:48.628Z,0.37
2023-05-02T21:27:50.003Z,0.40
2023-05-02T21:29:50.864Z,0.28
2023-05-02T21:31:54.029Z,0.10
2023-05-02T21:33:54.425Z,0.10
2023-05-02T21:35:55.897Z,0.10
2023-05-02T21:37:57.028Z,0.85
2023-05-02T21:39:57.996Z,1.65
2023-05-02T21:41:58.787Z,0.98
2023-05-02T21:43:59.771Z,0.20
2023-05-02T21:46:00.749Z,0.15
2023-05-02T21:48:01.880Z,0.40
2023-05-02T21:50:04.478Z,0.20
2023-05-02T21:52:05.526Z,0.10
2023-05-02T21:54:06.729Z,0.50
2023-05-02T21:56:07.990Z,0.20
2023-05-02T21:58:10.040Z,0.23
2023-05-02T22:00:12.311Z,0.35
2023-05-02T22:02:13.010Z,0.10
2023-05-02T22:04:13.958Z,0.30
2023-05-02T22:06:15.579Z,0.47
2023-05-02T22:08:16.746Z,0.30
2023-05-02T22:10:17.945Z,0.20
2023-05-02T22:12:19.456Z,0.10
2023-05-02T22:14:25.475Z,0.20
2023-05-02T22:16:24.248Z,0.10
2023-05-02T22:18:25.166Z,0.10
2023-05-02T22:20:26.034Z,0.17
2023-05-02T22:22:27.012Z,0.40
2023-05-02T22:24:28.100Z,0.10
2023-05-02T22:26:29.014Z,1.20
2023-05-02T22:28:29.808Z,0.50
2023-05-02T22:30:30.580Z,0.10
2023-05-02T22:32:31.488Z,0.10
2023-05-02T22:34:32.537Z,0.65
2023-05-02T22:36:34.812Z,0.23
2023-05-02T22:38:35.659Z,1.37
2023-05-02T22:40:36.514Z,0.30
2023-05-02T22:42:37.296Z,0.10
2023-05-02T22:44:50.627Z,0.10
2023-05-02T22:46:40.855Z,0.30
2023-05-02T22:48:41.661Z,0.10
2023-05-02T22:50:45.653Z,0.10
2023-05-02T22:52:48.316Z,0.10
2023-05-02T22:54:49.116Z,0.20
2023-05-02T22:56:50.028Z,0.30
2023-05-02T22:58:50.812Z,0.40
2023-05-02T23:00:51.662Z,2.50
2023-05-02T23:02:52.607Z,0.10
2023-05-02T23:04:53.410Z,0.72
2023-05-02T23:06:54.312Z,0.10
2023-05-02T23:08:55.264Z,0.10
2023-05-02T23:10:56.032Z,0.10
2023-05-02T23:12:56.816Z,1.75
2023-05-02T23:14:57.896Z,0.30
2023-05-02T23:17:00.257Z,0.13
2023-05-02T23:19:01.032Z,0.10
2023-05-02T23:21:02.515Z,0.10
2023-05-02T23:23:03.981Z,0.20
2023-05-02T23:25:06.151Z,0.10
2023-05-02T23:27:07.140Z,0.10
2023-05-02T23:29:07.997Z,0.10
2023-05-02T23:31:09.000Z,0.10
2023-05-02T23:33:09.933Z,0.10
2023-05-02T23:35:11.024Z,1.12
2023-05-02T23:37:14.190Z,0.10
2023-05-02T23:39:15.540Z,0.10
2023-05-02T23:41:16.404Z,0.62
2023-05-02T23:43:17.481Z,0.10
2023-05-02T23:45:19.107Z,0.10
2023-05-02T23:47:21.914Z,0.20
2023-05-02T23:49:22.756Z,0.10
2023-05-02T23:51:23.756Z,0.10
2023-05-02T23:53:24.527Z,0.10
2023-05-02T23:55:27.298Z,0.10
2023-05-02T23:57:28.824Z,0.10
2023-05-02T23:59:29.785Z,0.10
